createdAt,value
2018-10-19T00:00:01.593Z,59.20
2018-10-19T00:02:29.192Z,58.90
2018-10-19T00:04:56.783Z,58.90
2018-10-19T00:07:24.370Z,59.00
2018-10-19T00:09:52.016Z,58.30
2018-10-19T00:12:19.603Z,58.40
2018-10-19T00:14:47.132Z,58.30
2018-10-19T00:17:14.777Z,58.50
2018-10-19T00:19:42.282Z,58.50
2018-10-19T00:22:09.839Z,58.20
2018-10-19T00:24:37.327Z,58.50
2018-10-19T00:27:06.243Z,58.10
2018-10-19T00:29:33.701Z,58.80
2018-10-19T00:32:01.228Z,59.20
2018-10-19T00:34:29.028Z,60.00
2018-10-19T00:36:56.646Z,60.30
2018-10-19T00:39:24.220Z,59.70
2018-10-19T00:41:51.802Z,59.90
2018-10-19T00:44:19.336Z,60.00
2018-10-19T00:46:46.891Z,60.10
2018-10-19T00:49:14.383Z,60.00
2018-10-19T00:51:41.936Z,59.90
2018-10-19T00:54:09.511Z,60.30
2018-10-19T00:56:37.038Z,60.30
2018-10-19T00:59:04.582Z,60.70
2018-10-19T01:01:32.131Z,60.80
2018-10-19T01:03:59.681Z,60.40
2018-10-19T01:06:27.304Z,60.70
2018-10-19T01:08:54.917Z,60.50
2018-10-19T01:11:22.433Z,60.30
2018-10-19T01:13:49.925Z,59.70
2018-10-19T01:16:17.449Z,60.10
2018-10-19T01:18:44.972Z,60.20
2018-10-19T01:21:12.568Z,60.10
2018-10-19T01:23:40.054Z,60.00
2018-10-19T01:26:08.482Z,60.30
2018-10-19T01:28:35.981Z,60.10
2018-10-19T01:31:03.532Z,59.40
2018-10-19T01:33:31.053Z,59.70
2018-10-19T01:35:58.648Z,59.00
2018-10-19T01:38:26.373Z,59.50
2018-10-19T01:40:53.967Z,58.80
2018-10-19T01:43:21.474Z,58.80
2018-10-19T01:45:54.730Z,59.30
2018-10-19T01:48:28.361Z,59.40
2018-10-19T01:50:56.447Z,59.60
2018-10-19T01:53:23.987Z,60.10
2018-10-19T01:55:51.517Z,60.70
2018-10-19T01:58:19.044Z,61.30
2018-10-19T02:00:46.600Z,60.90
2018-10-19T02:03:14.184Z,60.30
2018-10-19T02:05:41.671Z,59.80
2018-10-19T02:08:09.950Z,59.50
2018-10-19T02:13:05.941Z,59.40
2018-10-19T02:15:34.909Z,59.00
2018-10-19T02:18:02.771Z,59.30
2018-10-19T02:20:30.290Z,59.20
2018-10-19T02:22:57.822Z,59.00
2018-10-19T02:25:25.286Z,59.10
2018-10-19T02:27:52.830Z,59.20
2018-10-19T02:30:20.482Z,59.80
2018-10-19T02:32:50.302Z,59.70
2018-10-19T02:35:18.216Z,59.70
2018-10-19T02:37:45.762Z,60.00
2018-10-19T02:40:13.325Z,59.80
2018-10-19T02:42:40.881Z,59.80
2018-10-19T02:45:09.415Z,59.50
2018-10-19T02:47:39.721Z,59.90
2018-10-19T02:50:08.138Z,60.20
2018-10-19T02:52:35.646Z,60.20
2018-10-19T02:55:03.219Z,60.50
2018-10-19T02:57:31.072Z,60.70
2018-10-19T02:59:58.683Z,61.00
2018-10-19T03:02:26.173Z,60.60
2018-10-19T03:04:53.836Z,60.20
2018-10-19T03:07:24.644Z,60.20
2018-10-19T03:12:20.139Z,60.30
2018-10-19T03:14:47.660Z,59.90
2018-10-19T03:17:16.687Z,59.80
2018-10-19T03:19:44.917Z,59.60
2018-10-19T03:22:12.440Z,60.10
2018-10-19T03:24:39.993Z,60.10
2018-10-19T03:27:08.137Z,59.80
2018-10-19T03:34:31.441Z,59.90
2018-10-19T03:36:59.011Z,60.10
2018-10-19T03:39:26.532Z,60.20
2018-10-19T03:41:54.074Z,60.00
2018-10-19T03:44:21.629Z,59.90
2018-10-19T03:46:49.123Z,60.20
2018-10-19T03:49:16.695Z,60.80
2018-10-19T03:51:44.222Z,61.10
2018-10-19T03:54:11.717Z,61.20
2018-10-19T03:56:40.851Z,60.90
2018-10-19T03:59:08.387Z,60.80
2018-10-19T04:01:35.892Z,61.10
2018-10-19T04:04:03.527Z,61.50
2018-10-19T04:06:31.121Z,61.70
2018-10-19T04:08:58.658Z,62.20
2018-10-19T04:11:26.130Z,62.30
2018-10-19T04:13:53.680Z,61.50
2018-10-19T04:18:48.865Z,61.60
2018-10-19T04:21:16.446Z,61.70
2018-10-19T04:23:43.896Z,62.50
2018-10-19T04:26:11.322Z,62.70
2018-10-19T04:28:38.881Z,63.20
2018-10-19T04:31:06.401Z,62.80
2018-10-19T04:33:34.513Z,63.30
2018-10-19T04:36:02.010Z,63.20
2018-10-19T04:38:29.507Z,63.20
2018-10-19T04:40:57.112Z,63.90
2018-10-19T04:43:24.530Z,63.60
2018-10-19T04:45:52.032Z,63.80
2018-10-19T04:48:19.545Z,63.90
2018-10-19T04:53:14.529Z,64.10
2018-10-19T04:55:42.042Z,64.30
2018-10-19T04:58:09.541Z,63.90
2018-10-19T05:00:37.073Z,63.30
2018-10-19T05:03:04.876Z,63.20
2018-10-19T05:05:32.489Z,62.90
2018-10-19T05:08:00.068Z,63.50
2018-10-19T05:10:27.636Z,63.70
2018-10-19T05:12:55.215Z,64.10
2018-10-19T05:15:22.680Z,63.50
2018-10-19T05:17:50.217Z,64.00
2018-10-19T05:20:17.819Z,64.10
2018-10-19T05:22:45.313Z,64.10
2018-10-19T05:25:12.970Z,63.90
2018-10-19T05:27:40.513Z,64.90
2018-10-19T05:30:10.008Z,64.30
2018-10-19T05:32:38.006Z,64.50
2018-10-19T05:37:33.341Z,65.00
2018-10-19T05:40:01.256Z,65.10
2018-10-19T05:42:28.797Z,65.10
2018-10-19T05:44:56.358Z,65.90
2018-10-19T05:47:23.882Z,65.80
2018-10-19T05:49:51.383Z,65.50
2018-10-19T05:54:46.536Z,65.50
2018-10-19T05:57:15.483Z,64.40
2018-10-19T05:59:43.060Z,64.80
2018-10-19T06:02:10.721Z,65.50
2018-10-19T06:04:38.263Z,65.20
2018-10-19T06:07:05.872Z,65.20
2018-10-19T06:09:33.470Z,65.10
2018-10-19T06:12:01.076Z,65.20
2018-10-19T06:14:28.636Z,65.20
2018-10-19T06:16:56.252Z,65.80
2018-10-19T06:19:23.797Z,65.60
2018-10-19T06:21:51.341Z,66.00
2018-10-19T06:24:18.936Z,66.00
2018-10-19T06:26:46.440Z,66.00
2018-10-19T06:29:14.030Z,65.60
2018-10-19T06:31:41.564Z,65.60
2018-10-19T06:34:09.347Z,65.60
2018-10-19T06:36:37.105Z,65.70
2018-10-19T06:39:07.241Z,65.00
2018-10-19T06:41:34.818Z,64.80
2018-10-19T06:44:02.481Z,64.40
2018-10-19T06:46:30.047Z,64.40
2018-10-19T06:48:58.132Z,64.70
2018-10-19T06:51:25.714Z,64.50
2018-10-19T06:53:53.205Z,64.10
2018-10-19T06:56:20.737Z,64.20
2018-10-19T06:58:48.385Z,64.10
2018-10-19T07:01:15.913Z,64.50
2018-10-19T07:03:43.471Z,63.80
2018-10-19T07:06:11.144Z,63.80
2018-10-19T07:11:06.156Z,63.00
2018-10-19T07:16:01.263Z,63.50
2018-10-19T07:18:28.836Z,63.10
2018-10-19T07:20:56.436Z,63.30
2018-10-19T07:23:24.063Z,62.90
2018-10-19T07:25:52.285Z,63.00
2018-10-19T07:28:19.936Z,62.60
2018-10-19T07:30:47.506Z,62.60
2018-10-19T07:33:15.034Z,62.80
2018-10-19T07:35:42.658Z,62.60
2018-10-19T07:38:10.269Z,62.60
2018-10-19T07:40:38.063Z,62.80
2018-10-19T07:43:05.844Z,62.30
2018-10-19T07:45:33.355Z,62.40
2018-10-19T07:48:01.125Z,62.40
2018-10-19T07:50:28.464Z,62.80
2018-10-19T07:55:23.492Z,61.40
2018-10-19T07:57:51.043Z,61.40
2018-10-19T08:00:18.617Z,61.50
2018-10-19T08:02:46.144Z,60.50
2018-10-19T08:05:13.784Z,61.30
2018-10-19T08:07:41.321Z,60.30
2018-10-19T08:10:09.761Z,60.30
2018-10-19T08:12:37.324Z,60.00
2018-10-19T08:15:06.018Z,59.60
2018-10-19T08:17:33.630Z,59.20
2018-10-19T08:20:01.202Z,59.20
2018-10-19T08:22:28.768Z,59.30
2018-10-19T08:29:51.618Z,57.40
2018-10-19T08:32:19.213Z,57.50
2018-10-19T08:34:46.924Z,57.60
2018-10-19T08:37:14.458Z,56.20
2018-10-19T08:39:41.990Z,56.30
2018-10-19T08:42:09.898Z,56.40
2018-10-19T08:44:37.419Z,56.40
2018-10-19T08:47:05.213Z,55.60
2018-10-19T08:49:32.798Z,55.20
2018-10-19T08:52:00.393Z,54.30
2018-10-19T08:54:27.962Z,54.40
2018-10-19T08:56:55.534Z,55.20
2018-10-19T08:59:23.061Z,53.10
2018-10-19T09:01:50.629Z,52.20
2018-10-19T09:04:18.118Z,53.10
2018-10-19T09:06:45.746Z,52.90
2018-10-19T09:09:13.294Z,52.40
2018-10-19T09:11:41.078Z,52.20
2018-10-19T09:14:20.029Z,51.10
2018-10-19T09:16:48.167Z,50.40
2018-10-19T09:19:15.947Z,50.10
2018-10-19T09:21:43.574Z,49.40
2018-10-19T09:24:11.320Z,49.30
2018-10-19T09:31:34.596Z,48.00
2018-10-19T09:34:02.203Z,47.40
2018-10-19T09:36:29.996Z,48.20
2018-10-19T09:38:57.516Z,47.70
2018-10-19T09:41:25.069Z,48.30
2018-10-19T09:43:52.885Z,46.10
2018-10-19T09:46:20.457Z,46.80
2018-10-19T09:48:48.053Z,45.20
2018-10-19T09:51:15.705Z,43.90
2018-10-19T09:53:43.284Z,43.20
2018-10-19T09:56:10.978Z,43.90
2018-10-19T09:58:38.513Z,43.40
2018-10-19T10:01:11.669Z,43.30
2018-10-19T10:03:39.212Z,41.90
2018-10-19T10:08:34.269Z,43.50
2018-10-19T10:11:01.887Z,43.80
2018-10-19T10:13:29.373Z,44.10
2018-10-19T10:15:56.921Z,44.20
2018-10-19T10:18:24.534Z,44.70
2018-10-19T10:20:52.183Z,46.10
2018-10-19T10:23:19.762Z,46.40
2018-10-19T10:25:47.367Z,44.00
2018-10-19T10:28:15.021Z,44.10
2018-10-19T10:30:42.573Z,40.50
2018-10-19T10:33:10.208Z,40.90
2018-10-19T10:35:37.783Z,39.40
2018-10-19T10:38:05.713Z,36.00
2018-10-19T10:40:33.334Z,35.30
2018-10-19T10:43:00.900Z,36.50
2018-10-19T10:45:28.493Z,34.80
2018-10-19T10:47:56.048Z,35.60
2018-10-19T10:50:23.632Z,33.90
2018-10-19T10:52:51.231Z,33.90
2018-10-19T10:55:19.102Z,33.70
2018-10-19T10:57:46.575Z,31.80
2018-10-19T11:00:14.153Z,31.90
2018-10-19T11:02:41.780Z,31.80
2018-10-19T11:05:09.388Z,30.90
2018-10-19T11:07:37.119Z,29.90
2018-10-19T11:10:05.353Z,29.60
2018-10-19T11:12:32.927Z,29.00
2018-10-19T11:15:00.687Z,27.70
2018-10-19T11:17:28.278Z,27.70
2018-10-19T11:19:55.860Z,28.20
2018-10-19T11:22:23.497Z,27.80
2018-10-19T11:24:51.052Z,26.90
2018-10-19T11:27:18.745Z,26.80
2018-10-19T11:29:46.345Z,26.60
2018-10-19T11:32:13.981Z,26.30
2018-10-19T11:34:41.593Z,26.20
2018-10-19T11:42:08.168Z,25.80
2018-10-19T11:49:30.870Z,25.40
2018-10-19T11:51:58.602Z,25.60
2018-10-19T11:54:26.182Z,26.20
2018-10-19T11:56:54.190Z,26.00
2018-10-19T11:59:21.653Z,27.20
2018-10-19T12:01:49.341Z,27.50
2018-10-19T12:04:17.004Z,28.50
2018-10-19T12:06:44.455Z,29.40
2018-10-19T12:09:12.212Z,30.40
2018-10-19T12:11:39.786Z,31.60
2018-10-19T12:14:07.310Z,33.50
2018-10-19T12:16:34.962Z,33.50
2018-10-19T12:19:02.491Z,34.90
2018-10-19T12:21:30.542Z,34.60
2018-10-19T12:23:58.061Z,35.50
2018-10-19T12:26:25.663Z,35.80
2018-10-19T12:28:53.233Z,37.10
2018-10-19T12:31:20.818Z,37.40
2018-10-19T12:33:48.421Z,37.40
2018-10-19T12:36:15.973Z,38.00
2018-10-19T12:38:43.553Z,37.50
2018-10-19T12:41:11.204Z,37.50
2018-10-19T12:43:38.675Z,37.40
2018-10-19T12:46:30.920Z,37.90
2018-10-19T12:48:58.512Z,38.40
2018-10-19T12:51:26.061Z,39.30
2018-10-19T12:53:53.722Z,39.50
2018-10-19T12:56:21.980Z,39.80
2018-10-19T12:58:50.637Z,39.70
2018-10-19T13:01:18.410Z,40.20
2018-10-19T13:03:45.983Z,40.00
2018-10-19T13:06:13.493Z,40.20
2018-10-19T13:08:41.104Z,40.00
2018-10-19T13:11:08.804Z,39.80
2018-10-19T13:13:36.650Z,40.00
2018-10-19T13:16:04.262Z,39.80
2018-10-19T13:18:32.606Z,40.50
2018-10-19T13:21:00.594Z,41.30
2018-10-19T13:23:28.599Z,42.90
2018-10-19T13:25:56.177Z,43.50
2018-10-19T13:28:23.821Z,42.90
2018-10-19T13:30:51.370Z,43.40
2018-10-19T13:33:18.950Z,43.90
2018-10-19T13:35:46.552Z,43.70
2018-10-19T13:38:14.407Z,43.70
2018-10-19T13:40:41.980Z,44.80
2018-10-19T13:43:09.573Z,45.50
2018-10-19T13:45:37.306Z,45.10
2018-10-19T13:48:04.979Z,45.00
2018-10-19T13:50:32.637Z,43.30
2018-10-19T13:53:00.243Z,43.60
2018-10-19T13:55:27.783Z,44.20
2018-10-19T13:57:55.840Z,43.10
2018-10-19T14:00:23.783Z,43.00
2018-10-19T14:02:51.362Z,42.90
2018-10-19T14:05:18.976Z,42.60
2018-10-19T14:07:46.599Z,43.10
2018-10-19T14:10:14.203Z,43.10
2018-10-19T14:12:41.735Z,43.40
2018-10-19T14:15:10.378Z,43.70
2018-10-19T14:20:08.071Z,43.60
2018-10-19T14:22:35.659Z,43.40
2018-10-19T14:25:03.267Z,43.40
2018-10-19T14:27:31.127Z,42.90
2018-10-19T14:29:58.688Z,44.20
2018-10-19T14:32:26.643Z,43.70
2018-10-19T14:34:54.224Z,43.90
2018-10-19T14:37:21.807Z,43.10
2018-10-19T14:39:49.384Z,42.70
2018-10-19T14:42:16.889Z,41.90
2018-10-19T14:44:44.366Z,41.80
2018-10-19T14:47:12.051Z,41.40
2018-10-19T14:49:39.564Z,40.60
2018-10-19T14:52:07.121Z,40.40
2018-10-19T14:57:02.220Z,41.80
2018-10-19T14:59:29.708Z,43.10
2018-10-19T15:01:57.287Z,43.80
2018-10-19T15:04:24.815Z,46.00
2018-10-19T15:06:52.414Z,46.00
2018-10-19T15:09:20.009Z,46.60
2018-10-19T15:11:47.823Z,47.00
2018-10-19T15:14:15.144Z,47.60
2018-10-19T15:16:42.755Z,48.00
2018-10-19T15:19:10.451Z,48.00
2018-10-19T15:21:38.076Z,47.90
2018-10-19T15:24:05.725Z,48.10
2018-10-19T15:26:33.340Z,48.40
2018-10-19T15:29:00.978Z,48.70
2018-10-19T15:31:28.519Z,49.30
2018-10-19T15:33:56.030Z,49.20
2018-10-19T15:36:23.665Z,49.10
2018-10-19T15:38:51.213Z,49.80
2018-10-19T15:41:18.824Z,50.20
2018-10-19T15:43:46.473Z,50.00
2018-10-19T15:46:14.081Z,50.40
2018-10-19T15:48:41.841Z,50.90
2018-10-19T15:51:09.540Z,51.20
2018-10-19T15:53:37.169Z,50.60
2018-10-19T15:56:05.063Z,51.10
2018-10-19T15:58:32.648Z,50.70
2018-10-19T16:01:00.232Z,51.70
2018-10-19T16:03:27.843Z,52.40
2018-10-19T16:05:55.424Z,52.10
2018-10-19T16:08:23.182Z,52.50
2018-10-19T16:10:50.805Z,52.80
2018-10-19T16:15:46.303Z,52.50
2018-10-19T16:18:13.877Z,52.40
2018-10-19T16:20:41.385Z,52.90
2018-10-19T16:23:08.921Z,52.60
2018-10-19T16:25:36.480Z,53.00
2018-10-19T16:28:04.401Z,52.60
2018-10-19T16:30:31.945Z,53.20
2018-10-19T16:32:59.511Z,53.00
2018-10-19T16:35:27.047Z,52.50
2018-10-19T16:40:22.116Z,52.90
2018-10-19T16:45:17.215Z,53.20
2018-10-19T16:47:45.045Z,53.20
2018-10-19T16:50:12.716Z,53.50
2018-10-19T16:53:13.064Z,53.30
2018-10-19T16:55:40.656Z,53.60
2018-10-19T16:58:08.352Z,53.40
2018-10-19T17:00:35.870Z,53.90
2018-10-19T17:03:03.523Z,53.70
2018-10-19T17:05:31.102Z,53.70
2018-10-19T17:07:58.712Z,54.20
2018-10-19T17:10:26.336Z,54.40
2018-10-19T17:12:53.952Z,55.40
2018-10-19T17:15:21.528Z,55.90
2018-10-19T17:20:16.617Z,56.10
2018-10-19T17:22:44.193Z,55.90
2018-10-19T17:25:11.906Z,56.10
2018-10-19T17:27:39.839Z,55.90
2018-10-19T17:30:10.662Z,56.00
2018-10-19T17:32:38.732Z,56.30
2018-10-19T17:35:07.057Z,56.70
2018-10-19T17:37:34.823Z,56.30
2018-10-19T17:40:02.739Z,55.80
2018-10-19T17:42:30.437Z,56.80
2018-10-19T17:44:58.111Z,56.70
2018-10-19T17:47:25.676Z,56.10
2018-10-19T17:49:53.267Z,56.20
2018-10-19T17:52:20.910Z,56.00
2018-10-19T17:54:48.635Z,56.60
2018-10-19T17:57:16.343Z,56.50
2018-10-19T17:59:43.933Z,56.80
2018-10-19T18:02:11.500Z,57.20
2018-10-19T18:04:39.053Z,57.50
2018-10-19T18:07:06.935Z,56.90
2018-10-19T18:09:34.710Z,56.40
2018-10-19T18:12:02.273Z,57.10
2018-10-19T18:14:29.777Z,56.80
2018-10-19T18:16:57.454Z,57.00
2018-10-19T18:19:25.000Z,57.00
2018-10-19T18:21:52.982Z,57.00
2018-10-19T18:24:20.208Z,57.20
2018-10-19T18:26:47.833Z,57.40
2018-10-19T18:29:15.798Z,57.70
2018-10-19T18:34:11.176Z,71.50
2018-10-19T18:36:38.891Z,81.70
2018-10-19T18:41:35.368Z,80.80
2018-10-19T18:51:26.084Z,58.00
2018-10-19T18:53:53.741Z,58.40
2018-10-19T18:56:21.403Z,58.30
2018-10-19T18:58:49.168Z,58.90
2018-10-19T19:06:12.041Z,79.40
2018-10-19T19:21:06.893Z,74.60
2018-10-19T19:28:38.474Z,71.60
2018-10-19T19:31:06.271Z,69.10
2018-10-19T19:38:37.057Z,68.10
2018-10-19T19:48:39.791Z,67.80
2018-10-19T19:51:12.116Z,64.10
2018-10-19T19:58:37.415Z,60.00
2018-10-19T20:03:41.461Z,63.30
2018-10-19T20:06:30.693Z,67.90
2018-10-19T20:09:00.957Z,68.30
2018-10-19T20:11:28.705Z,68.10
2018-10-19T20:14:04.200Z,65.60
2018-10-19T20:26:31.024Z,61.20
2018-10-19T20:29:03.319Z,62.00
2018-10-19T20:31:34.445Z,63.60
2018-10-19T20:38:36.665Z,63.10
2018-10-19T20:41:05.332Z,62.00
2018-10-19T20:43:33.037Z,62.20
2018-10-19T20:46:05.735Z,62.90
2018-10-19T20:51:23.792Z,67.50
2018-10-19T20:56:20.751Z,66.00
2018-10-19T21:01:17.105Z,63.40
2018-10-19T21:03:44.703Z,65.80
2018-10-19T21:06:12.267Z,62.60
2018-10-19T21:11:08.165Z,63.10
2018-10-19T21:13:36.944Z,62.70
2018-10-19T21:16:04.696Z,63.10
2018-10-19T21:23:35.723Z,68.60
2018-10-19T21:26:05.125Z,69.30
2018-10-19T21:31:00.191Z,64.50
2018-10-19T21:33:27.915Z,65.30
2018-10-19T21:43:20.296Z,75.20
2018-10-19T21:45:47.975Z,70.50
2018-10-19T21:50:43.010Z,69.10
2018-10-19T21:53:10.641Z,66.50
2018-10-19T21:55:38.161Z,77.00
2018-10-19T22:03:00.649Z,76.30
2018-10-19T22:05:28.269Z,64.70
2018-10-19T22:22:40.528Z,63.10
2018-10-19T22:27:36.673Z,64.30
2018-10-19T22:34:59.809Z,73.80
2018-10-19T22:44:52.455Z,81.20
2018-10-19T22:49:47.849Z,69.30
2018-10-19T22:52:18.527Z,77.40
2018-10-19T22:54:50.059Z,72.00
2018-10-19T22:57:22.441Z,69.60
2018-10-19T22:59:53.375Z,69.10
2018-10-19T23:02:20.944Z,75.00
2018-10-19T23:07:15.979Z,70.10
2018-10-19T23:22:49.105Z,77.20
2018-10-19T23:25:20.489Z,71.60
2018-10-19T23:27:48.440Z,76.80
2018-10-19T23:32:43.441Z,68.50
2018-10-19T23:35:20.855Z,71.30
2018-10-19T23:37:48.393Z,71.20
2018-10-19T23:40:20.700Z,67.30
2018-10-19T23:42:48.214Z,73.30
2018-10-19T23:45:15.796Z,73.70
2018-10-19T23:47:45.359Z,66.00
2018-10-19T23:55:08.715Z,71.80
2018-10-19T23:57:36.260Z,73.60
